Appling, Georgia
Current Conditions -  °F | °C
As of 8:15 PM on Tuesday 21 Oct 2014 (Local Time) from KHQU Reporting Station
Clear Clear  
Wind Chill: 66°   Ceiling: Unl
Heat Index: 66°   Visibility: 10mi
Dew Point: 56°   Wind: 6mph
Humidity: 72%   Direction: 290°WNW
Pressure: 29.98"   Gusts: NA
Location:  33.55°N, 82.32°W
Report Text: KHQU 220015Z AUTO 29005KT 10SM CLR 19/14 A2998 RMK AO1 T01870136
Loading
Personal Weather Stations






























Interactive Weather Map New forecast layout! Learn more

10-Day Weather Forecast

Advertisements
Track Severe Weather on mobile